Time;durP1;ratioP1;P1;durP2;ratioP2;P2;SDS_P1;SDS_P2;PMS_P1;PMS_P2;Temp;Humidity;BMP_temperature;BMP_pressure;BME280_temperature;BME280_humidity;BME280_pressure;Samples;Min_cycle;Max_cycle;Signal;HPM_P1;HPM_P2
2022/10/14 00:01:45;;;;;;;;;;;;;;;9.06;87.73;100443.05;106813;1303;22439;-73
2022/10/14 00:04:12;;;;;;;35.50;17.80;;;;;;;9.06;87.96;100444.42;106942;1303;22142;-75
2022/10/14 00:06:39;;;;;;;;;;;;;;;9.06;88.00;100440.29;106744;1303;138427;-77
2022/10/14 00:09:07;;;;;;;43.30;17.70;;;;;;;9.07;88.13;100442.09;107023;1303;22274;-77
2022/10/14 00:11:35;;;;;;;45.80;19.80;;;;;;;9.07;88.19;100438.90;105973;1303;139250;-76
2022/10/14 00:14:09;;;;;;;42.80;19.10;;;;;;;9.08;88.00;100436.79;102883;1313;24155;-76
2022/10/14 00:16:37;;;;;;;35.40;17.50;;;;;;;9.08;87.98;100437.34;102860;1301;25386;-78
2022/10/14 00:19:04;;;;;;;32.40;16.60;;;;;;;9.08;88.17;100434.03;102775;1310;138706;-77
2022/10/14 00:21:31;;;;;;;30.10;17.70;;;;;;;9.08;88.11;100432.49;102848;1313;22950;-76
2022/10/14 00:23:57;;;;;;;28.70;15.70;;;;;;;9.08;88.33;100433.96;102942;1313;138532;-78
2022/10/14 00:26:26;;;;;;;23.40;13.90;;;;;;;9.06;88.17;100435.56;103102;1306;22598;-78
2022/10/14 00:28:53;;;;;;;25.00;14.40;;;;;;;9.05;88.26;100436.91;106725;1303;139777;-77
2022/10/14 00:31:20;;;;;;;28.30;13.10;;;;;;;9.04;88.34;100435.08;106826;1303;22119;-77
2022/10/14 00:33:47;;;;;;;31.20;14.50;;;;;;;9.03;88.44;100430.56;106887;1306;23294;-73
2022/10/14 00:36:15;;;;;;;;;;;;;;;9.02;88.46;100428.20;106653;1306;139202;-73
2022/10/14 00:38:44;;;;;;;30.70;15.00;;;;;;;9.01;88.49;100425.82;106760;1303;22744;-73
2022/10/14 00:41:13;;;;;;;30.60;15.10;;;;;;;9.01;88.58;100425.65;106677;1303;138908;-72
2022/10/14 00:44:14;;;;;;;21.90;12.40;;;;;;;9.01;88.56;100421.90;106823;1306;23009;-72
2022/10/14 00:46:41;;;;;;;25.10;12.10;;;;;;;9.01;88.67;100423.30;106470;1306;22305;-72
2022/10/14 00:49:14;;;;;;;24.40;12.00;;;;;;;9.02;88.59;100420.80;106271;1309;139897;-72
2022/10/14 00:51:42;;;;;;;23.90;13.00;;;;;;;9.02;88.61;100421.21;106386;1309;22333;-71
2022/10/14 00:54:10;;;;;;;21.40;12.70;;;;;;;9.00;88.61;100418.82;106410;1306;138397;-72
2022/10/14 00:56:37;;;;;;;26.20;12.60;;;;;;;9.03;88.66;100418.73;106293;1304;22900;-72
2022/10/14 00:59:06;;;;;;;24.30;13.20;;;;;;;9.02;88.67;100412.64;106173;1306;139131;-71
2022/10/14 01:01:33;;;;;;;25.20;11.80;;;;;;;9.02;88.71;100413.98;106258;1307;22287;-71
2022/10/14 01:03:59;;;;;;;;;;;;;;;9.02;88.74;100410.80;106459;1308;22939;-71
2022/10/14 01:06:30;;;;;;;24.30;12.60;;;;;;;9.04;88.77;100410.08;106284;1301;125997;-71
2022/10/14 01:09:05;;;;;;;18.10;11.30;;;;;;;9.03;88.65;100408.86;106388;1309;22186;-71
2022/10/14 01:11:37;;;;;;;23.60;12.30;;;;;;;9.02;88.53;100410.80;106336;1306;139217;-71
2022/10/14 01:14:19;;;;;;;21.70;11.20;;;;;;;9.00;88.42;100409.31;106444;1307;22179;-71
2022/10/14 01:16:58;;;;;;;21.60;10.70;;;;;;;8.99;88.36;100407.64;106304;1309;22204;-71
2022/10/14 01:19:55;;;;;;;21.30;10.90;;;;;;;8.98;88.27;100406.69;106314;1309;22374;-72
2022/10/14 01:22:46;;;;;;;23.10;12.60;;;;;;;8.97;88.27;100403.45;106446;1304;22225;-72
2022/10/14 01:25:58;;;;;;;20.80;11.20;;;;;;;8.95;88.07;100402.42;106410;1306;140456;-72
2022/10/14 01:29:06;;;;;;;20.70;10.50;;;;;;;8.93;88.11;100402.76;106136;1310;22660;-71
2022/10/14 01:31:34;;;;;;;23.70;10.40;;;;;;;8.89;87.81;100399.45;105704;1316;23023;-72
2022/10/14 01:34:05;;;;;;;19.40;10.00;;;;;;;8.83;87.50;100399.78;105483;1317;23213;-73
2022/10/14 01:36:34;;;;;;;19.40;11.40;;;;;;;8.79;87.37;100399.43;105472;1316;138955;-73
2022/10/14 01:39:13;;;;;;;18.90;11.10;;;;;;;8.74;87.31;100396.67;105669;1316;22396;-72
2022/10/14 01:41:44;;;;;;;22.30;10.60;;;;;;;8.70;87.32;100396.33;105568;1320;139150;-68
2022/10/14 01:44:11;;;;;;;21.70;11.10;;;;;;;8.66;87.27;100397.45;105535;1320;22270;-68
2022/10/14 01:46:39;;;;;;;19.70;10.90;;;;;;;8.64;87.34;100395.86;105691;1308;22154;-69
2022/10/14 01:49:09;;;;;;;17.70;11.70;;;;;;;8.62;87.21;100396.41;105400;1313;138987;-69
2022/10/14 01:51:38;;;;;;;20.90;11.60;;;;;;;8.60;87.25;100396.40;105618;1316;22470;-69
2022/10/14 01:54:09;;;;;;;17.20;10.40;;;;;;;8.58;87.18;100399.25;105370;1317;139803;-69
2022/10/14 01:56:36;;;;;;;14.80;9.40;;;;;;;8.56;87.18;100397.77;105596;1312;23201;-68
2022/10/14 01:59:06;;;;;;;22.80;11.30;;;;;;;8.51;87.09;100398.40;105438;1316;139276;-68
2022/10/14 02:01:35;;;;;;;16.90;9.50;;;;;;;8.46;87.00;100397.70;105843;1313;22346;-68
2022/10/14 02:04:01;;;;;;;24.30;11.80;;;;;;;8.44;86.94;100399.59;105954;1313;22263;-70
2022/10/14 02:06:30;;;;;;;;;;;;;;;8.41;86.96;100402.91;106401;1304;139415;-70
2022/10/14 02:09:13;;;;;;;18.00;11.30;;;;;;;8.39;87.04;100403.05;106361;1310;22134;-70
2022/10/14 02:11:56;;;;;;;18.50;11.40;;;;;;;8.36;87.13;100398.13;106515;1305;138977;-70
2022/10/14 02:14:38;;;;;;;17.50;10.60;;;;;;;8.31;87.18;100398.39;106590;1305;22166;-70
2022/10/14 02:17:33;;;;;;;14.60;10.20;;;;;;;8.28;87.11;100398.35;106476;1303;139648;-70
2022/10/14 02:20:09;;;;;;;16.00;10.80;;;;;;;8.23;86.86;100395.23;106728;1303;22102;-70
2022/10/14 02:22:39;;;;;;;14.90;10.70;;;;;;;8.18;86.80;100394.36;106741;1303;22195;-70
2022/10/14 02:25:18;;;;;;;19.50;10.50;;;;;;;8.14;86.79;100392.75;106483;1305;138298;-71
2022/10/14 02:27:45;;;;;;;16.60;10.30;;;;;;;8.11;86.79;100391.27;106692;1303;22133;-70
2022/10/14 02:30:11;;;;;;;16.80;10.00;;;;;;;8.06;86.63;100391.90;106439;1303;139356;-71
2022/10/14 02:32:38;;;;;;;13.10;8.80;;;;;;;8.02;86.57;100395.77;106543;1305;22123;-71
2022/10/14 02:35:05;;;;;;;;;;;;;;;7.97;86.43;100391.83;106486;1302;139262;-70
2022/10/14 02:37:32;;;;;;;16.80;10.70;;;;;;;7.92;86.35;100396.64;106737;1302;22142;-71
2022/10/14 02:40:14;;;;;;;17.10;10.00;;;;;;;7.88;86.33;100395.79;106562;1302;22209;-68
2022/10/14 02:42:41;;;;;;;18.50;10.30;;;;;;;7.85;86.40;100392.46;106529;1302;138223;-68
2022/10/14 02:45:08;;;;;;;;;;;;;;;7.81;86.24;100393.36;106776;1302;22780;-68
2022/10/14 02:47:34;;;;;;;16.90;9.80;;;;;;;7.75;85.94;100392.11;106593;1296;125226;-68
2022/10/14 02:50:01;;;;;;;17.90;9.80;;;;;;;7.66;85.83;100394.03;106695;1295;22227;-68
2022/10/14 02:52:28;;;;;;;16.30;10.80;;;;;;;7.58;85.85;100391.09;106704;1306;22274;-68
2022/10/14 02:54:55;;;;;;;17.30;9.20;;;;;;;7.57;85.87;100397.89;106547;1296;138975;-68
2022/10/14 02:57:22;;;;;;;16.60;9.30;;;;;;;7.54;85.94;100399.31;106733;1302;22151;-68
2022/10/14 02:59:48;;;;;;;;;;;;;;;7.51;85.93;100399.72;106615;1303;139337;-68
2022/10/14 03:02:15;;;;;;;16.30;9.40;;;;;;;7.50;86.18;100401.16;106754;1303;22174;-68
2022/10/14 03:04:42;;;;;;;17.20;9.10;;;;;;;7.46;86.29;100401.38;106802;1300;22309;-68
2022/10/14 03:07:09;;;;;;;;;;;;;;;7.43;86.66;100401.42;106680;1302;138519;-68
2022/10/14 03:09:40;;;;;;;17.20;9.50;;;;;;;7.42;86.76;100397.59;106785;1302;22346;-69
2022/10/14 03:12:07;;;;;;;16.10;8.50;;;;;;;7.40;86.75;100398.43;106661;1300;138592;-68
2022/10/14 03:14:34;;;;;;;20.20;9.70;;;;;;;7.38;86.74;100398.77;106754;1302;22205;-68
2022/10/14 03:17:01;;;;;;;19.50;9.70;;;;;;;7.35;86.85;100399.02;106654;1303;138596;-68
2022/10/14 03:19:30;;;;;;;15.80;9.30;;;;;;;7.34;86.98;100392.89;106762;1294;22130;-68
2022/10/14 03:21:57;;;;;;;16.40;8.00;;;;;;;7.34;87.03;100393.10;106810;1302;22666;-68
2022/10/14 03:24:24;;;;;;;16.40;9.90;;;;;;;7.33;87.24;100388.77;106698;1303;139006;-68
2022/10/14 03:27:08;;;;;;;16.50;9.10;;;;;;;7.33;87.27;100395.44;106750;1303;22911;-68
2022/10/14 03:29:35;;;;;;;;;;;;;;;7.33;87.52;100395.84;106685;1303;139614;-68
2022/10/14 03:32:10;;;;;;;16.00;8.90;;;;;;;7.33;87.75;100396.02;106782;1303;22168;-68
2022/10/14 03:35:03;;;;;;;18.30;8.60;;;;;;;7.33;87.76;100394.31;106699;1300;138775;-68
2022/10/14 03:37:30;;;;;;;12.40;8.60;;;;;;;7.32;87.81;100394.36;106789;1303;22384;-67
2022/10/14 03:39:57;;;;;;;;;;;;;;;7.33;87.92;100393.35;106802;1295;23703;-67
2022/10/14 03:42:24;;;;;;;16.90;8.90;;;;;;;7.33;88.07;100394.39;106621;1303;124556;-67
2022/10/14 03:44:51;;;;;;;19.10;9.70;;;;;;;7.33;88.34;100394.23;106765;1302;22118;-67
2022/10/14 03:47:24;;;;;;;15.20;9.10;;;;;;;7.31;88.35;100387.31;106667;1300;140205;-66
2022/10/14 03:49:51;;;;;;;15.10;8.50;;;;;;;7.33;88.63;100391.14;106747;1303;22210;-67
2022/10/14 03:52:26;;;;;;;13.60;8.60;;;;;;;7.34;88.51;100391.38;106724;1303;22166;-67
2022/10/14 03:55:03;;;;;;;18.90;9.60;;;;;;;7.33;88.82;100387.79;106746;1303;138147;-67
2022/10/14 03:57:30;;;;;;;13.60;9.30;;;;;;;7.35;88.65;100390.91;106807;1288;22847;-67
2022/10/14 03:59:58;;;;;;;15.80;9.20;;;;;;;7.36;88.79;100393.02;106657;1303;139248;-67
2022/10/14 04:02:39;;;;;;;13.90;9.70;;;;;;;7.38;88.70;100391.55;106820;1301;22116;-68
2022/10/14 04:05:08;;;;;;;21.80;11.80;;;;;;;7.38;88.71;100390.46;106673;1300;138350;-67
2022/10/14 04:07:35;;;;;;;18.10;11.30;;;;;;;7.38;88.93;100390.05;106749;1303;22117;-67
2022/10/14 04:10:02;;;;;;;21.50;10.90;;;;;;;7.40;88.87;100390.21;106877;1300;22689;-67
2022/10/14 04:12:29;;;;;;;15.70;9.60;;;;;;;7.41;88.98;100389.67;106672;1303;138497;-67
2022/10/14 04:14:59;;;;;;;19.70;11.70;;;;;;;7.41;88.75;100391.08;106735;1302;22181;-66
2022/10/14 04:17:30;;;;;;;20.00;12.90;;;;;;;7.40;88.71;100393.76;106639;1303;138576;-66
2022/10/14 04:19:59;;;;;;;20.60;12.20;;;;;;;7.38;88.89;100390.38;106759;1302;22171;-66
2022/10/14 04:22:26;;;;;;;16.60;10.60;;;;;;;7.37;88.96;100386.80;106878;1303;22121;-66
2022/10/14 04:24:53;;;;;;;18.20;11.00;;;;;;;7.35;88.80;100385.66;106683;1303;138870;-66
2022/10/14 04:27:20;;;;;;;18.40;10.80;;;;;;;7.33;88.79;100392.14;106792;1303;22920;-66
2022/10/14 04:29:54;;;;;;;21.60;12.60;;;;;;;7.31;88.88;100392.02;106746;1303;140095;-66
2022/10/14 04:32:25;;;;;;;21.40;9.70;;;;;;;7.29;88.69;100391.90;106910;1303;22144;-66
2022/10/14 04:34:53;;;;;;;;;;;;;;;7.27;88.98;100392.58;106775;1303;22447;-66
2022/10/14 04:37:22;;;;;;;30.40;15.00;;;;;;;7.29;89.09;100399.16;106766;1294;22849;-66
2022/10/14 04:40:02;;;;;;;27.80;14.90;;;;;;;7.26;89.36;100399.33;106776;1303;23349;-66
2022/10/14 04:42:30;;;;;;;23.00;14.20;;;;;;;7.28;89.76;100398.45;106727;1300;138579;-66
2022/10/14 04:45:00;;;;;;;16.10;11.70;;;;;;;7.31;90.16;100396.64;106767;1303;22209;-66
2022/10/14 04:47:47;;;;;;;;;;;;;;;7.33;90.08;100391.92;106833;1303;139551;-68
2022/10/14 04:50:17;;;;;;;21.50;11.40;;;;;;;7.38;90.20;100394.14;106774;1303;22160;-68
2022/10/14 04:53:04;;;;;;;20.10;12.20;;;;;;;7.40;90.22;100397.77;106722;1303;139933;-67
2022/10/14 04:55:35;;;;;;;29.50;13.40;;;;;;;7.43;90.33;100396.29;106759;1300;22139;-67
2022/10/14 04:58:02;;;;;;;21.20;12.40;;;;;;;7.44;90.20;100397.16;106861;1302;23039;-68
2022/10/14 05:00:34;;;;;;;22.70;12.50;;;;;;;7.46;90.30;100397.45;106656;1303;139047;-68
2022/10/14 05:03:09;;;;;;;23.40;13.70;;;;;;;7.48;90.44;100392.02;106779;1300;22121;-68
2022/10/14 05:05:36;;;;;;;24.10;14.10;;;;;;;7.49;90.54;100397.57;106622;1288;139179;-68
2022/10/14 05:08:04;;;;;;;23.20;12.60;;;;;;;7.51;90.73;100398.54;106751;1300;22550;-68
2022/10/14 05:10:35;;;;;;;24.70;13.60;;;;;;;7.54;90.82;100401.45;106747;1303;22881;-64
2022/10/14 05:13:03;;;;;;;22.30;13.30;;;;;;;7.56;90.92;100404.36;106647;1302;138351;-69
2022/10/14 05:15:33;;;;;;;22.20;14.10;;;;;;;7.59;91.12;100403.06;105966;1303;1116719;-69
2022/10/14 05:18:56;;;;;;;20.10;13.50;;;;;;;7.65;91.25;100404.91;99672;1331;544932;-67
2022/10/14 05:21:25;;;;;;;23.40;13.40;;;;;;;7.68;91.48;100401.78;101437;1316;22597;-67
2022/10/14 05:23:57;;;;;;;26.30;13.70;;;;;;;7.73;91.51;100404.06;101467;1311;137895;-67
2022/10/14 05:26:25;;;;;;;23.70;14.90;;;;;;;7.78;91.87;100410.80;105566;1320;22171;-67
2022/10/14 05:28:52;;;;;;;41.70;16.50;;;;;;;7.83;92.02;100411.71;105957;1316;22246;-67
2022/10/14 05:31:19;;;;;;;31.20;17.80;;;;;;;7.83;92.16;100408.80;105821;1314;137540;-67
2022/10/14 05:33:56;;;;;;;34.10;20.90;;;;;;;7.89;92.10;100417.79;106064;1300;22123;-67
2022/10/14 05:36:23;;;;;;;29.60;19.10;;;;;;;7.89;92.24;100417.69;106661;1301;139021;-67
2022/10/14 05:38:50;;;;;;;30.70;18.40;;;;;;;7.97;92.43;100423.77;106722;1304;22160;-67
2022/10/14 05:41:18;;;;;;;27.60;16.00;;;;;;;8.02;92.47;100427.42;106645;1303;138946;-68
2022/10/14 05:43:45;;;;;;;;;;;;;;;8.06;92.35;100428.86;106737;1292;22424;-68
2022/10/14 05:46:12;;;;;;;24.20;13.90;;;;;;;8.10;92.29;100425.92;106841;1301;22141;-68
2022/10/14 05:48:40;;;;;;;26.30;14.80;;;;;;;8.14;92.36;100423.52;106630;1300;138375;-68
2022/10/14 05:51:06;;;;;;;29.90;14.70;;;;;;;8.17;92.51;100422.72;106812;1292;22226;-67
2022/10/14 05:53:36;;;;;;;26.50;14.80;;;;;;;8.26;92.45;100428.36;106688;1286;138404;-67
2022/10/14 05:56:06;;;;;;;33.00;18.10;;;;;;;8.31;92.52;100431.02;106760;1288;22126;-67
2022/10/14 05:58:35;;;;;;;27.40;17.50;;;;;;;8.38;92.49;100428.09;106756;1302;22882;-68
2022/10/14 06:01:03;;;;;;;30.60;18.70;;;;;;;8.44;92.62;100430.92;106658;1303;138342;-67
2022/10/14 06:03:30;;;;;;;36.60;21.80;;;;;;;8.50;92.69;100427.95;106746;1303;22160;-67
2022/10/14 06:05:57;;;;;;;43.30;22.20;;;;;;;8.56;92.52;100431.57;106727;1303;137985;-67
2022/10/14 06:08:24;;;;;;;33.80;20.50;;;;;;;8.61;92.66;100431.03;106816;1303;22177;-67
2022/10/14 06:10:51;;;;;;;31.90;18.60;;;;;;;8.67;92.67;100429.63;106686;1303;22130;-68
2022/10/14 06:13:19;;;;;;;34.10;18.80;;;;;;;8.72;92.47;100434.39;106642;1303;138498;-68
2022/10/14 06:15:45;;;;;;;30.20;18.80;;;;;;;8.77;92.43;100436.73;106739;1303;22314;-67
2022/10/14 06:18:18;;;;;;;34.00;17.40;;;;;;;8.83;92.31;100435.98;106636;1287;137937;-68
2022/10/14 06:20:50;;;;;;;;;;;;;;;8.88;92.25;100439.50;106769;1303;22391;-67
2022/10/14 06:23:17;;;;;;;29.90;17.50;;;;;;;8.93;92.14;100440.04;106722;1303;124756;-69
2022/10/14 06:25:44;;;;;;;36.60;18.80;;;;;;;8.98;92.01;100445.00;106846;1289;22600;-68
2022/10/14 06:28:10;;;;;;;;;;;;;;;9.02;91.73;100445.84;106849;1303;23624;-69
2022/10/14 06:30:37;;;;;;;28.20;16.80;;;;;;;9.02;91.85;100441.46;106660;1303;124425;-68
2022/10/14 06:33:04;;;;;;;31.60;18.10;;;;;;;9.04;91.61;100442.45;106848;1303;22811;-69
2022/10/14 06:35:30;;;;;;;;;;;;;;;9.09;91.65;100446.45;106644;1303;138353;-69
2022/10/14 06:37:57;;;;;;;41.30;21.10;;;;;;;9.12;91.76;100446.19;106899;1303;22225;-69
2022/10/14 06:40:24;;;;;;;;;;;;;;;9.13;91.54;100448.89;106819;1303;23098;-67
2022/10/14 06:42:52;;;;;;;30.30;19.40;;;;;;;9.13;91.66;100446.89;106680;1303;125064;-67
2022/10/14 06:45:19;;;;;;;36.10;20.80;;;;;;;9.14;91.70;100449.64;106796;1302;22120;-67
2022/10/14 06:47:46;;;;;;;33.80;22.20;;;;;;;9.16;91.34;100450.67;106707;1302;137995;-67
2022/10/14 06:50:12;;;;;;;36.70;22.20;;;;;;;9.18;91.47;100448.44;106767;1294;22131;-67
2022/10/14 06:52:39;;;;;;;;;;;;;;;9.22;91.47;100448.96;107003;1300;22331;-67
2022/10/14 06:55:06;;;;;;;35.50;19.60;;;;;;;9.27;91.62;100447.95;106897;1300;124662;-67
2022/10/14 06:57:33;;;;;;;35.30;21.90;;;;;;;9.31;91.74;100445.56;106944;1293;23785;-67
2022/10/14 07:00:00;;;;;;;;;;;;;;;9.34;91.32;100446.28;106864;1300;138816;-67
2022/10/14 07:02:26;;;;;;;30.90;19.30;;;;;;;9.39;91.67;100449.61;106977;1300;22871;-67
2022/10/14 07:04:53;;;;;;;;;;;;;;;9.42;91.49;100447.27;106979;1300;22372;-67
2022/10/14 07:07:20;;;;;;;29.90;18.30;;;;;;;9.47;91.53;100446.77;106932;1300;125482;-67
2022/10/14 07:09:46;;;;;;;;;;;;;;;9.52;91.55;100442.61;107000;1300;22368;-64
2022/10/14 07:12:13;;;;;;;75.00;42.20;;;;;;;9.58;91.35;100440.05;106856;1300;124461;-67
2022/10/14 07:14:40;;;;;;;47.30;25.70;;;;;;;9.63;91.26;100440.02;107063;1297;22110;-67
2022/10/14 07:17:07;;;;;;;35.70;21.10;;;;;;;9.69;91.05;100436.96;106972;1298;139161;-67
2022/10/14 07:19:34;;;;;;;34.10;18.60;;;;;;;9.74;90.87;100438.27;107051;1292;22196;-66
2022/10/14 07:22:01;;;;;;;;;;;;;;;9.80;90.66;100433.54;107065;1298;22351;-66
2022/10/14 07:24:28;;;;;;;30.40;16.10;;;;;;;9.85;90.06;100434.44;106874;1300;124074;-65
2022/10/14 07:26:54;;;;;;;;;;;;;;;9.85;89.65;100429.20;107154;1300;22401;-65
2022/10/14 07:29:21;;;;;;;42.70;23.00;;;;;;;9.89;89.20;100427.30;106912;1300;125310;-64
2022/10/14 07:31:48;;;;;;;44.70;23.90;;;;;;;9.92;88.77;100425.01;107081;1282;22124;-67
2022/10/14 07:34:15;;;;;;;;;;;;;;;9.96;88.55;100426.23;107067;1300;22321;-67
2022/10/14 07:36:41;;;;;;;37.30;16.60;;;;;;;10.01;88.69;100426.59;106937;1300;124879;-67
2022/10/14 07:39:08;;;;;;;;;;;;;;;10.06;88.37;100426.52;106901;1298;22351;-65
2022/10/14 07:41:35;;;;;;;29.50;15.10;;;;;;;10.11;87.71;100430.45;102645;1293;124898;-67
2022/10/14 07:44:05;;;;;;;33.30;14.90;;;;;;;10.15;87.07;100427.42;102697;1306;22514;-67
2022/10/14 07:46:32;;;;;;;25.40;14.40;;;;;;;10.17;86.70;100432.41;102666;1286;25310;-66
2022/10/14 07:49:01;;;;;;;30.30;14.30;;;;;;;10.21;86.55;100430.85;102573;1285;139757;-66
2022/10/14 07:51:28;;;;;;;21.10;12.60;;;;;;;10.26;86.33;100429.48;106764;1305;22204;-64
2022/10/14 07:53:55;;;;;;;;;;;;;;;10.31;85.91;100434.70;106928;1300;139090;-63
2022/10/14 07:56:22;;;;;;;27.50;14.50;;;;;;;10.37;85.44;100435.34;107002;1298;22119;-68
2022/10/14 07:58:49;;;;;;;;;;;;;;;10.42;85.44;100435.98;107012;1292;22376;-67
2022/10/14 08:01:17;;;;;;;26.90;12.70;;;;;;;10.47;85.14;100432.52;106914;1300;125806;-68
2022/10/14 08:03:45;;;;;;;20.60;11.00;;;;;;;10.51;84.81;100434.13;107050;1300;23047;-67
2022/10/14 08:06:12;;;;;;;24.10;12.10;;;;;;;10.56;84.37;100436.45;106922;1300;139479;-67
2022/10/14 08:08:38;;;;;;;22.60;12.70;;;;;;;10.61;84.17;100433.53;107016;1292;23131;-67
2022/10/14 08:11:08;;;;;;;23.30;11.90;;;;;;;10.66;84.15;100430.77;106912;1300;139334;-67
2022/10/14 08:13:35;;;;;;;21.30;11.30;;;;;;;10.68;83.72;100428.72;107083;1300;22957;-67
2022/10/14 08:16:01;;;;;;;25.50;13.40;;;;;;;10.76;83.62;100423.09;107001;1300;22968;-67
2022/10/14 08:18:28;;;;;;;;;;;;;;;10.81;83.27;100425.44;106908;1300;139621;-67
2022/10/14 08:20:55;;;;;;;22.20;10.10;;;;;;;10.86;82.98;100423.68;107083;1300;22346;-67
2022/10/14 08:23:22;;;;;;;22.90;10.00;;;;;;;10.90;82.74;100422.94;106896;1292;140392;-67
2022/10/14 08:25:49;;;;;;;17.80;11.00;;;;;;;10.97;82.54;100421.94;107019;1300;22329;-67
2022/10/14 08:28:16;;;;;;;19.90;10.30;;;;;;;11.04;82.04;100424.11;107015;1297;22138;-67
2022/10/14 08:30:42;;;;;;;;;;;;;;;11.07;81.14;100425.45;106902;1300;140048;-68
2022/10/14 08:33:11;;;;;;;17.10;9.70;;;;;;;11.08;80.88;100423.16;107031;1285;22120;-67
2022/10/14 08:35:38;;;;;;;16.20;9.10;;;;;;;11.10;80.64;100422.94;106863;1300;140155;-67
2022/10/14 08:38:05;;;;;;;17.80;8.40;;;;;;;11.11;80.29;100421.98;107054;1300;22117;-67
2022/10/14 08:40:48;;;;;;;32.20;13.20;;;;;;;11.13;80.17;100422.05;106993;1298;22114;-67
2022/10/14 08:43:29;;;;;;;21.90;10.80;;;;;;;11.16;80.14;100418.25;106692;1307;22144;-67
2022/10/14 08:46:01;;;;;;;18.00;9.00;;;;;;;11.17;79.97;100413.39;106944;1300;22157;-67
2022/10/14 08:48:27;;;;;;;15.10;8.80;;;;;;;11.22;79.72;100415.67;106922;1300;138168;-68
2022/10/14 08:51:08;;;;;;;;;;;;;;;11.24;79.25;100413.98;106983;1300;22462;-67
2022/10/14 08:53:38;;;;;;;17.90;8.50;;;;;;;11.28;78.94;100410.70;107011;1300;126159;-67
2022/10/14 08:56:05;;;;;;;18.50;7.80;;;;;;;11.32;78.44;100409.33;106869;1297;22135;-70
2022/10/14 08:58:44;;;;;;;20.50;8.10;;;;;;;11.33;78.29;100410.77;107011;1299;22895;-68
2022/10/14 09:01:25;;;;;;;20.60;8.50;;;;;;;11.37;78.01;100411.02;106828;1298;137359;-67
2022/10/14 09:03:57;;;;;;;17.70;7.50;;;;;;;11.39;77.78;100413.14;106962;1300;22150;-68
2022/10/14 09:06:25;;;;;;;17.70;7.70;;;;;;;11.42;77.65;100413.02;107029;1300;138822;-69
2022/10/14 09:08:54;;;;;;;15.80;7.50;;;;;;;11.45;77.17;100415.44;107000;1300;22182;-68
2022/10/14 09:11:23;;;;;;;12.70;7.30;;;;;;;11.48;76.69;100416.31;106814;1295;138422;-68
2022/10/14 09:13:52;;;;;;;16.70;7.70;;;;;;;11.50;76.26;100417.19;106992;1300;22135;-69
2022/10/14 09:16:20;;;;;;;14.90;8.90;;;;;;;11.52;75.99;100414.84;106843;1300;22117;-68
2022/10/14 09:18:56;;;;;;;16.20;7.80;;;;;;;11.55;76.22;100415.90;106707;1300;137748;-68
2022/10/14 09:21:34;;;;;;;17.20;8.60;;;;;;;11.57;75.90;100413.05;106978;1300;23243;-68
2022/10/14 09:24:26;;;;;;;17.60;8.30;;;;;;;11.60;75.60;100411.59;106864;1291;139209;-68
2022/10/14 09:26:57;;;;;;;17.80;7.10;;;;;;;11.65;75.28;100415.23;107015;1300;22227;-69
2022/10/14 09:29:29;;;;;;;16.90;7.50;;;;;;;11.68;74.82;100413.77;106832;1300;139618;-68
2022/10/14 09:32:07;;;;;;;19.40;7.00;;;;;;;11.72;74.68;100416.45;106932;1300;22102;-69
2022/10/14 09:34:35;;;;;;;19.50;7.60;;;;;;;11.77;74.73;100410.04;106817;1300;22352;-68
2022/10/14 09:37:31;;;;;;;20.30;8.00;;;;;;;11.83;74.15;100409.82;106914;1300;138827;-68
2022/10/14 09:40:00;;;;;;;13.90;7.60;;;;;;;11.88;73.62;100405.00;107109;1300;22128;-72
2022/10/14 09:43:08;;;;;;;16.10;7.30;;;;;;;11.90;73.56;100401.59;106813;1300;137527;-72
2022/10/14 09:46:00;;;;;;;15.70;8.50;;;;;;;11.94;73.17;100400.80;106470;1305;22504;-73
2022/10/14 09:48:47;;;;;;;26.50;13.80;;;;;;;11.96;73.12;100397.52;106259;1306;139575;-72
2022/10/14 09:51:40;;;;;;;21.10;12.70;;;;;;;11.97;72.72;100398.56;106411;1297;22278;-72
2022/10/14 09:54:19;;;;;;;14.80;8.10;;;;;;;11.96;72.51;100394.63;106218;1306;137886;-72
2022/10/14 09:56:48;;;;;;;16.80;7.70;;;;;;;11.95;72.26;100393.23;106365;1307;22136;-72
2022/10/14 09:59:19;;;;;;;16.40;6.90;;;;;;;11.95;71.88;100391.33;106324;1306;138674;-72
2022/10/14 10:01:56;;;;;;;15.30;6.50;;;;;;;11.95;71.53;100393.67;106364;1305;23142;-72
2022/10/14 10:04:29;;;;;;;;;;;;;;;11.97;71.48;100393.30;106366;1306;22364;-72
2022/10/14 10:06:56;;;;;;;11.90;6.80;;;;;;;11.98;71.30;100394.69;106343;1306;126265;-72
2022/10/14 10:09:22;;;;;;;10.90;5.80;;;;;;;11.97;71.48;100391.63;106453;1306;22264;-71
2022/10/14 10:11:49;;;;;;;11.10;5.70;;;;;;;11.98;71.47;100392.57;106307;1297;139669;-72
2022/10/14 10:14:19;;;;;;;13.50;6.20;;;;;;;11.98;71.32;100393.06;106307;1302;22154;-67
2022/10/14 10:16:46;;;;;;;14.30;6.60;;;;;;;11.99;71.13;100388.64;106442;1306;22979;-69
2022/10/14 10:19:27;;;;;;;19.30;6.30;;;;;;;11.99;70.49;100389.90;106328;1306;138827;-69
2022/10/14 10:21:55;;;;;;;9.40;5.00;;;;;;;11.99;70.17;100384.86;106498;1298;22155;-69
2022/10/14 10:24:22;;;;;;;13.70;6.80;;;;;;;11.98;70.19;100385.46;106748;1300;138428;-69
2022/10/14 10:26:54;;;;;;;16.80;6.50;;;;;;;11.98;70.25;100382.99;107016;1300;22103;-69
2022/10/14 10:29:28;;;;;;;;;;;;;;;11.96;70.05;100385.50;106858;1299;138917;-72
2022/10/14 10:32:17;;;;;;;10.50;5.50;;;;;;;11.94;69.64;100382.84;106960;1300;22174;-72
2022/10/14 10:35:10;;;;;;;22.30;7.00;;;;;;;11.94;69.19;100380.92;106961;1300;22121;-70
2022/10/14 10:37:47;;;;;;;11.50;5.20;;;;;;;11.97;69.55;100379.83;106930;1297;22910;-71
2022/10/14 10:40:26;;;;;;;;;;;;;;;12.02;68.88;100382.98;105095;1299;22504;-66
2022/10/14 10:42:53;;;;;;;14.20;5.70;;;;;;;12.07;68.64;100383.67;106673;1307;124571;-65
2022/10/14 10:45:50;;;;;;;13.40;5.10;;;;;;;12.10;67.93;100383.73;106990;1300;23058;-66
2022/10/14 10:48:23;;;;;;;13.50;4.70;;;;;;;12.13;67.51;100382.88;106879;1300;138116;-66
2022/10/14 10:51:01;;;;;;;15.90;5.50;;;;;;;12.15;67.53;100383.23;107014;1300;22343;-66
2022/10/14 10:53:41;;;;;;;14.70;5.60;;;;;;;12.17;67.71;100381.21;106873;1300;137958;-66
2022/10/14 10:56:17;;;;;;;17.70;6.20;;;;;;;12.20;68.18;100380.23;102967;1306;22472;-66
2022/10/14 10:59:24;;;;;;;15.60;5.60;;;;;;;12.23;67.65;100379.58;106978;1300;22137;-67
2022/10/14 11:02:15;;;;;;;13.90;4.70;;;;;;;12.24;66.89;100374.35;106869;1300;22171;-57
2022/10/14 11:04:49;;;;;;;14.80;7.50;;;;;;;12.24;66.77;100371.81;107019;1300;22156;-67
2022/10/14 11:13:22;;;;;;;15.80;8.30;;;;;;;12.28;66.53;100367.13;106898;1285;138640;-68
2022/10/14 11:15:53;;;;;;;13.70;6.50;;;;;;;12.23;66.37;100362.57;106922;1298;22178;-67
2022/10/14 11:18:30;;;;;;;14.60;6.30;;;;;;;12.23;66.44;100365.92;106883;1297;139534;-68
2022/10/14 11:21:23;;;;;;;15.20;6.50;;;;;;;12.22;66.56;100362.39;107005;1300;22277;-68
2022/10/14 11:24:18;;;;;;;14.60;6.40;;;;;;;12.20;66.88;100361.42;107031;1300;138370;-67
2022/10/14 11:27:34;;;;;;;16.20;7.60;;;;;;;12.18;66.85;100358.33;107016;1300;22904;-68
2022/10/14 11:30:17;;;;;;;16.50;5.50;;;;;;;12.19;66.95;100360.48;106388;1304;138718;-67
2022/10/14 11:32:51;;;;;;;22.40;6.70;;;;;;;12.19;66.79;100360.55;106363;1308;22142;-68
2022/10/14 11:35:22;;;;;;;15.70;5.70;;;;;;;12.19;66.76;100359.29;106294;1307;139197;-67
2022/10/14 11:38:24;;;;;;;16.20;8.40;;;;;;;12.20;66.86;100356.63;106543;1306;22164;-67
2022/10/14 11:41:21;;;;;;;14.10;7.30;;;;;;;12.20;66.72;100356.89;106308;1306;22282;-68
2022/10/14 11:44:12;;;;;;;13.50;4.50;;;;;;;12.19;66.32;100355.52;106418;1306;22237;-67
2022/10/14 11:46:42;;;;;;;10.70;4.60;;;;;;;12.17;65.70;100353.40;106517;1306;22276;-68